»·PEaware :: N500LL KLAS-KMRY

N500LL :: KLAS-KMRY

FLIGHT INFORMATION

Flight Status: Arrived
Operator: Privately registered:
United States
More flights under this callsign
Pilot: Andy P. (22680)
Aircraft: GATES LEARJET LEARJET 35/36
(LJ35)
More flights by this aircraft type
Origin: KLAS McCarran Intl
United States
Destination: KMRY Monterey Peninsula
United States
More flights between these airports :: More routes between these airports
Route: +SHEAD1 SHEAD BIKKR Q158 NTELL PXN SNS
File this flight plan on PilotEdge
Remarks:
Altitude:
(Current/Filed)
40,000ft
Speed:
(Current/Filed)
465kts
Departed: 27-Oct-19 02:52 PM
Arrived: 27-Oct-19 04:03 PM
Distance/Time
Traveled:
326nm/1:10
Distance/Time
To Go:
Arrived

Flight Plot

Page will automatically refresh every two minutes.

Flight plan parsing failed; only flown route is shown


Map Options




Map Legend


Flown Route
Filed Route
Departure Airport
Arrival Airport
Navaid (VOR, NDB)
Fix

Horizontal Profiles

Position Reports

Time Latitude Longitude Heading Altitude Ground
Speed
27-Oct-19 14:26 36.099147 -115.160545 115 2183ft 0kts
27-Oct-19 14:27 36.099147 -115.160545 115 2183ft 0kts
27-Oct-19 14:28 36.099147 -115.160545 115 2183ft 0kts
27-Oct-19 14:29 36.099147 -115.160545 115 2183ft 0kts
27-Oct-19 14:30 36.099147 -115.160545 115 2183ft 0kts
27-Oct-19 14:31 36.099147 -115.160545 115 2183ft 0kts
27-Oct-19 14:32 36.099147 -115.160545 115 2183ft 0kts
27-Oct-19 14:33 36.099147 -115.160545 115 2183ft 0kts
27-Oct-19 14:33 36.099147 -115.160545 115 2183ft 0kts
27-Oct-19 14:35 36.099147 -115.160545 115 2183ft 0kts
27-Oct-19 14:36 36.099147 -115.160545 115 2183ft 0kts
27-Oct-19 14:36 36.099147 -115.160545 115 2183ft 0kts
27-Oct-19 14:37 36.099147 -115.160545 115 2183ft 0kts
27-Oct-19 14:38 36.099147 -115.160545 115 2183ft 0kts
27-Oct-19 14:40 36.099147 -115.160545 115 2183ft 0kts
27-Oct-19 14:40 36.099147 -115.160545 115 2183ft 0kts
27-Oct-19 14:41 36.099147 -115.160545 115 2183ft 0kts
27-Oct-19 14:42 36.099147 -115.160545 115 2184ft 0kts
27-Oct-19 14:43 36.099147 -115.160545 115 2184ft 0kts
27-Oct-19 14:44 36.099147 -115.160545 115 2184ft 0kts
27-Oct-19 14:45 36.099147 -115.160545 115 2184ft 0kts
27-Oct-19 14:46 36.099011 -115.160265 122 2184ft 6kts
27-Oct-19 14:47 36.094615 -115.161748 206 2184ft 30kts
27-Oct-19 14:48 36.084943 -115.167312 204 2184ft 40kts
27-Oct-19 14:49 36.077533 -115.171239 176 2184ft 5kts
27-Oct-19 14:50 36.077437 -115.171230 175 2184ft 4kts
27-Oct-19 14:51 36.081561 -115.166944 25 2184ft 103kts
27-Oct-19 14:52 36.127616 -115.153913 325 3873ft 191kts
27-Oct-19 14:53 36.118654 -115.221684 251 5997ft 241kts
27-Oct-19 14:54 36.089805 -115.291707 212 7983ft 255kts
27-Oct-19 14:55 36.023239 -115.337862 204 11491ft 292kts
27-Oct-19 14:56 35.947397 -115.368337 214 16230ft 267kts
27-Oct-19 14:57 35.889040 -115.415650 246 18783ft 215kts
27-Oct-19 14:58 35.890571 -115.494095 274 21623ft 249kts
27-Oct-19 14:59 35.889596 -115.584545 266 24250ft 277kts
27-Oct-19 15:00 35.891031 -115.680607 268 27029ft 284kts
27-Oct-19 15:01 35.892698 -115.779556 268 29318ft 290kts
27-Oct-19 15:02 35.894288 -115.877571 269 31894ft 283kts
27-Oct-19 15:03 35.899447 -115.973582 288 34072ft 287kts
27-Oct-19 15:04 35.959264 -116.045714 307 36087ft 303kts
27-Oct-19 15:05 36.021213 -116.115597 306 37884ft 300kts
27-Oct-19 15:06 36.082195 -116.185765 305 39457ft 298kts
27-Oct-19 15:07 36.145073 -116.258551 307 39941ft 326kts
27-Oct-19 15:08 36.215066 -116.339671 307 39949ft 362kts
27-Oct-19 15:09 36.291526 -116.428466 308 39954ft 389kts
27-Oct-19 15:10 36.372181 -116.522372 308 39958ft 399kts
27-Oct-19 15:11 36.452762 -116.616515 308 39957ft 398kts
27-Oct-19 15:12 36.533092 -116.710671 309 39957ft 396kts
27-Oct-19 15:13 36.581798 -116.823667 274 39959ft 373kts
27-Oct-19 15:14 36.592259 -116.952187 275 39960ft 374kts
27-Oct-19 15:15 36.606297 -117.080340 276 39961ft 375kts
27-Oct-19 15:16 36.621242 -117.209348 276 39964ft 376kts
27-Oct-19 15:17 36.636227 -117.338311 276 40019ft 376kts
27-Oct-19 15:18 36.651134 -117.467597 276 40019ft 377kts
27-Oct-19 15:19 36.665930 -117.597174 276 40020ft 378kts
27-Oct-19 15:20 36.680618 -117.727070 276 40023ft 378kts
27-Oct-19 15:21 36.695131 -117.856723 276 40024ft 379kts
27-Oct-19 15:22 36.709562 -117.986962 276 40024ft 379kts
27-Oct-19 15:23 36.723835 -118.117088 277 40030ft 380kts
27-Oct-19 15:24 36.738064 -118.248194 277 40033ft 380kts
27-Oct-19 15:25 36.752065 -118.378542 276 39348ft 380kts
27-Oct-19 15:26 36.765910 -118.508842 276 37748ft 379kts
27-Oct-19 15:27 36.779797 -118.640985 277 36204ft 386kts
27-Oct-19 15:28 36.793232 -118.773831 277 35118ft 383kts
27-Oct-19 15:29 36.806496 -118.906883 278 33940ft 394kts
27-Oct-19 15:30 36.819924 -119.043167 278 32406ft 391kts
27-Oct-19 15:31 36.832994 -119.177357 278 30943ft 390kts
27-Oct-19 15:32 36.846008 -119.312566 278 29460ft 394kts
27-Oct-19 15:33 36.859033 -119.449549 278 27958ft 402kts
27-Oct-19 15:34 36.872232 -119.590134 278 26414ft 413kts
27-Oct-19 15:35 36.885530 -119.733718 278 24841ft 422kts
27-Oct-19 15:36 36.896469 -119.877987 271 23261ft 408kts
27-Oct-19 15:37 36.873298 -120.016643 261 21714ft 407kts
27-Oct-19 15:38 36.845783 -120.154331 261 20319ft 409kts
27-Oct-19 15:39 36.817377 -120.292256 260 19153ft 404kts
27-Oct-19 15:40 36.789632 -120.425674 261 17953ft 396kts
27-Oct-19 15:41 36.761743 -120.559254 260 16754ft 400kts
27-Oct-19 15:42 36.733750 -120.692403 260 15554ft 389kts
27-Oct-19 15:43 36.712710 -120.824197 270 14363ft 386kts
27-Oct-19 15:44 36.704829 -120.955567 270 13168ft 335kts
27-Oct-19 15:45 36.698709 -121.054685 272 11923ft 260kts
27-Oct-19 15:46 36.693234 -121.145969 271 10737ft 275kts
27-Oct-19 15:47 36.687213 -121.241999 270 9530ft 279kts
27-Oct-19 15:48 36.681040 -121.338950 269 8335ft 274kts
27-Oct-19 15:49 36.675583 -121.428340 269 7182ft 275kts
27-Oct-19 15:50 36.669363 -121.519642 269 6983ft 258kts
27-Oct-19 15:51 36.624114 -121.579036 191 6926ft 255kts
27-Oct-19 15:52 36.560750 -121.548789 119 5858ft 237kts
27-Oct-19 15:53 36.567388 -121.480235 67 5131ft 191kts
27-Oct-19 15:54 36.598114 -121.464169 319 5079ft 153kts
27-Oct-19 15:55 36.595205 -121.520230 258 5062ft 184kts
27-Oct-19 15:56 36.577444 -121.581365 257 5123ft 187kts
27-Oct-19 15:57 36.564528 -121.639553 282 3957ft 156kts
27-Oct-19 15:58 36.568666 -121.688942 278 3025ft 131kts
27-Oct-19 15:59 36.572463 -121.733418 275 2168ft 129kts
27-Oct-19 16:00 36.576012 -121.777138 276 1375ft 129kts
27-Oct-19 16:01 36.579182 -121.819861 287 475ft 120kts
27-Oct-19 16:02 36.587021 -121.845961 230 208ft 14kts
27-Oct-19 16:03 36.588097 -121.850051 293 208ft 27kts
27-Oct-19 16:04 36.589038 -121.858462 319 208ft 8kts
27-Oct-19 16:05 36.589238 -121.858560 341 208ft 0kts

Navigation Log

Ident Type
Flight plan parsing failed, navigation log unavailable